sensor_id;sensor_type;location;lat;lon;timestamp;noise_LAeq;noise_LA_min;noise_LA_max;noise_LA01;noise_LA95
74210;Laerm;62569;51.976;5.646;2022-10-16T00:01:34;28.29;26.36;36.57;;
74210;Laerm;62569;51.976;5.646;2022-10-16T00:04:00;28.26;26.34;35.59;;
74210;Laerm;62569;51.976;5.646;2022-10-16T00:06:26;28.30;26.40;34.33;;
74210;Laerm;62569;51.976;5.646;2022-10-16T00:08:51;28.42;26.28;35.30;;
74210;Laerm;62569;51.976;5.646;2022-10-16T00:11:18;28.27;26.29;39.09;;
74210;Laerm;62569;51.976;5.646;2022-10-16T00:13:47;28.32;26.38;34.50;;
74210;Laerm;62569;51.976;5.646;2022-10-16T00:16:13;28.29;26.25;34.49;;
74210;Laerm;62569;51.976;5.646;2022-10-16T00:18:38;28.30;26.44;34.84;;
74210;Laerm;62569;51.976;5.646;2022-10-16T00:21:04;28.37;26.45;34.65;;
74210;Laerm;62569;51.976;5.646;2022-10-16T00:23:30;28.30;26.39;34.32;;
74210;Laerm;62569;51.976;5.646;2022-10-16T00:25:56;28.30;26.29;34.45;;
74210;Laerm;62569;51.976;5.646;2022-10-16T00:28:21;28.28;26.35;34.62;;
74210;Laerm;62569;51.976;5.646;2022-10-16T00:30:47;28.33;26.30;34.52;;
74210;Laerm;62569;51.976;5.646;2022-10-16T00:33:12;28.33;26.25;38.07;;
74210;Laerm;62569;51.976;5.646;2022-10-16T00:35:37;28.56;26.43;35.90;;
74210;Laerm;62569;51.976;5.646;2022-10-16T00:38:02;28.30;26.26;34.45;;
74210;Laerm;62569;51.976;5.646;2022-10-16T00:40:27;28.25;26.27;34.48;;
74210;Laerm;62569;51.976;5.646;2022-10-16T00:42:53;28.26;26.24;34.26;;
74210;Laerm;62569;51.976;5.646;2022-10-16T00:45:18;28.40;26.27;34.21;;
74210;Laerm;62569;51.976;5.646;2022-10-16T00:47:43;28.41;26.12;37.82;;
74210;Laerm;62569;51.976;5.646;2022-10-16T00:50:16;28.43;26.45;34.59;;
74210;Laerm;62569;51.976;5.646;2022-10-16T00:52:44;36.15;26.44;59.58;;
74210;Laerm;62569;51.976;5.646;2022-10-16T00:55:11;28.36;26.14;34.71;;
74210;Laerm;62569;51.976;5.646;2022-10-16T00:57:37;28.36;26.19;34.49;;
74210;Laerm;62569;51.976;5.646;2022-10-16T01:00:04;28.35;26.28;34.92;;
74210;Laerm;62569;51.976;5.646;2022-10-16T01:02:30;28.43;26.41;37.30;;
74210;Laerm;62569;51.976;5.646;2022-10-16T01:04:55;28.55;26.34;35.24;;
74210;Laerm;62569;51.976;5.646;2022-10-16T01:15:19;28.54;26.52;35.05;;
74210;Laerm;62569;51.976;5.646;2022-10-16T01:17:49;28.55;26.38;35.67;;
74210;Laerm;62569;51.976;5.646;2022-10-16T01:20:35;28.56;26.36;35.72;;
74210;Laerm;62569;51.976;5.646;2022-10-16T01:25:34;29.35;26.40;38.11;;
74210;Laerm;62569;51.976;5.646;2022-10-16T01:28:01;28.23;26.25;34.16;;
74210;Laerm;62569;51.976;5.646;2022-10-16T01:30:30;28.23;26.04;34.07;;
74210;Laerm;62569;51.976;5.646;2022-10-16T01:32:59;28.36;26.48;36.93;;
74210;Laerm;62569;51.976;5.646;2022-10-16T01:35:29;28.36;26.13;34.44;;
74210;Laerm;62569;51.976;5.646;2022-10-16T01:38:12;28.22;26.19;34.63;;
74210;Laerm;62569;51.976;5.646;2022-10-16T01:40:41;28.22;26.30;34.38;;
74210;Laerm;62569;51.976;5.646;2022-10-16T01:43:12;28.23;26.30;34.66;;
74210;Laerm;62569;51.976;5.646;2022-10-16T01:45:38;28.33;26.36;34.34;;
74210;Laerm;62569;51.976;5.646;2022-10-16T01:48:05;28.37;26.47;34.37;;
74210;Laerm;62569;51.976;5.646;2022-10-16T01:50:33;28.49;26.41;40.16;;
74210;Laerm;62569;51.976;5.646;2022-10-16T01:53:00;28.47;26.20;41.91;;
74210;Laerm;62569;51.976;5.646;2022-10-16T01:55:34;28.29;26.23;37.69;;
74210;Laerm;62569;51.976;5.646;2022-10-16T01:58:01;28.32;26.35;34.18;;
74210;Laerm;62569;51.976;5.646;2022-10-16T02:00:27;28.29;26.21;34.04;;
74210;Laerm;62569;51.976;5.646;2022-10-16T02:02:54;28.28;26.36;36.83;;
74210;Laerm;62569;51.976;5.646;2022-10-16T02:05:27;28.24;26.32;34.05;;
74210;Laerm;62569;51.976;5.646;2022-10-16T02:07:53;28.32;26.24;34.81;;
74210;Laerm;62569;51.976;5.646;2022-10-16T02:10:18;28.33;26.34;34.32;;
74210;Laerm;62569;51.976;5.646;2022-10-16T02:12:49;28.34;26.28;34.63;;
74210;Laerm;62569;51.976;5.646;2022-10-16T02:15:15;28.33;26.28;34.52;;
74210;Laerm;62569;51.976;5.646;2022-10-16T02:17:40;29.17;26.37;38.23;;
74210;Laerm;62569;51.976;5.646;2022-10-16T02:20:05;28.38;26.44;34.26;;
74210;Laerm;62569;51.976;5.646;2022-10-16T02:22:35;28.32;26.35;34.71;;
74210;Laerm;62569;51.976;5.646;2022-10-16T02:25:09;28.33;26.29;34.60;;
74210;Laerm;62569;51.976;5.646;2022-10-16T02:27:40;28.63;26.35;36.29;;
74210;Laerm;62569;51.976;5.646;2022-10-16T02:30:08;28.37;26.37;34.24;;
74210;Laerm;62569;51.976;5.646;2022-10-16T02:32:37;28.57;26.38;37.35;;
74210;Laerm;62569;51.976;5.646;2022-10-16T02:35:03;28.32;26.32;34.53;;
74210;Laerm;62569;51.976;5.646;2022-10-16T02:37:29;28.31;26.29;34.80;;
74210;Laerm;62569;51.976;5.646;2022-10-16T02:39:55;28.33;26.29;34.53;;
74210;Laerm;62569;51.976;5.646;2022-10-16T02:42:26;28.32;26.19;34.44;;
74210;Laerm;62569;51.976;5.646;2022-10-16T02:44:52;28.42;26.35;34.80;;
74210;Laerm;62569;51.976;5.646;2022-10-16T02:47:17;28.42;26.43;34.52;;
74210;Laerm;62569;51.976;5.646;2022-10-16T02:49:42;28.40;26.49;34.69;;
74210;Laerm;62569;51.976;5.646;2022-10-16T02:52:07;28.53;26.58;48.41;;
74210;Laerm;62569;51.976;5.646;2022-10-16T02:54:32;28.34;26.43;34.85;;
74210;Laerm;62569;51.976;5.646;2022-10-16T02:56:58;28.29;26.34;34.54;;
74210;Laerm;62569;51.976;5.646;2022-10-16T02:59:23;28.31;26.26;34.74;;
74210;Laerm;62569;51.976;5.646;2022-10-16T03:01:48;28.36;26.24;35.75;;
74210;Laerm;62569;51.976;5.646;2022-10-16T03:04:13;28.33;26.44;34.71;;
74210;Laerm;62569;51.976;5.646;2022-10-16T03:06:38;28.28;26.32;34.21;;
74210;Laerm;62569;51.976;5.646;2022-10-16T03:09:03;28.34;26.22;35.03;;
74210;Laerm;62569;51.976;5.646;2022-10-16T03:11:28;28.33;26.04;34.48;;
74210;Laerm;62569;51.976;5.646;2022-10-16T03:13:54;28.30;26.07;35.04;;
74210;Laerm;62569;51.976;5.646;2022-10-16T03:16:19;28.36;26.38;35.05;;
74210;Laerm;62569;51.976;5.646;2022-10-16T03:18:47;28.30;26.47;34.52;;
74210;Laerm;62569;51.976;5.646;2022-10-16T03:21:12;28.33;26.25;35.42;;
74210;Laerm;62569;51.976;5.646;2022-10-16T03:23:37;28.34;26.28;35.50;;
74210;Laerm;62569;51.976;5.646;2022-10-16T03:26:02;39.95;26.24;70.75;;
74210;Laerm;62569;51.976;5.646;2022-10-16T03:28:28;29.51;26.42;46.75;;
74210;Laerm;62569;51.976;5.646;2022-10-16T03:30:53;28.53;26.27;34.66;;
74210;Laerm;62569;51.976;5.646;2022-10-16T03:33:18;28.36;26.25;38.27;;
74210;Laerm;62569;51.976;5.646;2022-10-16T03:35:43;28.43;26.34;38.40;;
74210;Laerm;62569;51.976;5.646;2022-10-16T03:38:15;28.48;26.27;34.49;;
74210;Laerm;62569;51.976;5.646;2022-10-16T03:40:40;28.45;26.53;36.30;;
74210;Laerm;62569;51.976;5.646;2022-10-16T03:43:05;28.31;26.34;35.14;;
74210;Laerm;62569;51.976;5.646;2022-10-16T03:45:31;28.32;25.91;34.16;;
74210;Laerm;62569;51.976;5.646;2022-10-16T03:47:56;28.41;26.48;34.35;;
74210;Laerm;62569;51.976;5.646;2022-10-16T03:50:21;28.48;26.21;34.55;;
74210;Laerm;62569;51.976;5.646;2022-10-16T03:52:46;28.51;26.32;34.67;;
74210;Laerm;62569;51.976;5.646;2022-10-16T03:55:12;28.62;26.51;34.88;;
74210;Laerm;62569;51.976;5.646;2022-10-16T03:57:37;28.37;26.15;34.44;;
74210;Laerm;62569;51.976;5.646;2022-10-16T04:00:02;28.37;26.38;34.27;;
74210;Laerm;62569;51.976;5.646;2022-10-16T04:02:27;28.32;26.32;36.29;;
74210;Laerm;62569;51.976;5.646;2022-10-16T04:04:53;28.33;26.35;34.45;;
74210;Laerm;62569;51.976;5.646;2022-10-16T04:07:18;28.30;26.21;34.45;;
74210;Laerm;62569;51.976;5.646;2022-10-16T04:09:43;28.28;26.38;34.32;;
74210;Laerm;62569;51.976;5.646;2022-10-16T04:12:08;28.32;26.28;34.69;;
74210;Laerm;62569;51.976;5.646;2022-10-16T04:14:33;28.33;26.13;34.14;;
74210;Laerm;62569;51.976;5.646;2022-10-16T04:16:59;28.20;26.05;34.00;;
74210;Laerm;62569;51.976;5.646;2022-10-16T04:19:24;28.30;26.25;34.38;;
74210;Laerm;62569;51.976;5.646;2022-10-16T04:21:49;28.28;26.32;34.53;;
74210;Laerm;62569;51.976;5.646;2022-10-16T04:24:14;28.36;26.30;34.41;;
74210;Laerm;62569;51.976;5.646;2022-10-16T04:26:39;28.39;26.32;34.05;;
74210;Laerm;62569;51.976;5.646;2022-10-16T04:29:04;28.50;26.41;34.43;;
74210;Laerm;62569;51.976;5.646;2022-10-16T04:31:31;28.33;26.26;34.41;;
74210;Laerm;62569;51.976;5.646;2022-10-16T04:33:56;28.31;26.45;38.11;;
74210;Laerm;62569;51.976;5.646;2022-10-16T04:36:21;28.27;26.18;34.10;;
74210;Laerm;62569;51.976;5.646;2022-10-16T04:38:46;28.34;26.33;34.35;;
74210;Laerm;62569;51.976;5.646;2022-10-16T04:41:11;28.28;26.24;34.49;;
74210;Laerm;62569;51.976;5.646;2022-10-16T04:43:36;29.01;26.41;37.66;;
74210;Laerm;62569;51.976;5.646;2022-10-16T04:46:02;28.44;26.30;34.28;;
74210;Laerm;62569;51.976;5.646;2022-10-16T04:48:29;28.25;26.37;34.47;;
74210;Laerm;62569;51.976;5.646;2022-10-16T04:50:54;28.43;26.26;34.85;;
74210;Laerm;62569;51.976;5.646;2022-10-16T04:53:19;29.26;26.60;36.00;;
74210;Laerm;62569;51.976;5.646;2022-10-16T04:55:45;29.71;26.63;48.25;;
74210;Laerm;62569;51.976;5.646;2022-10-16T04:58:10;31.21;27.47;55.52;;
74210;Laerm;62569;51.976;5.646;2022-10-16T05:00:35;29.68;26.65;46.90;;
74210;Laerm;62569;51.976;5.646;2022-10-16T05:03:01;30.39;26.41;56.09;;
74210;Laerm;62569;51.976;5.646;2022-10-16T05:05:26;31.61;26.33;52.64;;
74210;Laerm;62569;51.976;5.646;2022-10-16T05:07:51;34.05;26.60;55.14;;
74210;Laerm;62569;51.976;5.646;2022-10-16T05:10:17;43.58;27.67;71.71;;
74210;Laerm;62569;51.976;5.646;2022-10-16T05:12:42;47.35;26.50;71.38;;
74210;Laerm;62569;51.976;5.646;2022-10-16T05:15:07;42.42;26.37;71.06;;
74210;Laerm;62569;51.976;5.646;2022-10-16T05:17:32;38.40;26.37;72.28;;
74210;Laerm;62569;51.976;5.646;2022-10-16T05:19:57;41.01;26.42;75.33;;
74210;Laerm;62569;51.976;5.646;2022-10-16T05:22:23;36.38;26.34;63.56;;
74210;Laerm;62569;51.976;5.646;2022-10-16T05:24:48;39.79;26.62;72.70;;
74210;Laerm;62569;51.976;5.646;2022-10-16T05:27:13;43.03;26.56;71.72;;
74210;Laerm;62569;51.976;5.646;2022-10-16T05:29:44;34.40;26.78;61.85;;
74210;Laerm;62569;51.976;5.646;2022-10-16T05:32:09;54.01;26.51;81.15;;
74210;Laerm;62569;51.976;5.646;2022-10-16T05:34:34;37.21;26.67;63.70;;
74210;Laerm;62569;51.976;5.646;2022-10-16T05:36:59;47.15;26.52;74.92;;
74210;Laerm;62569;51.976;5.646;2022-10-16T05:39:24;43.23;26.30;69.60;;
74210;Laerm;62569;51.976;5.646;2022-10-16T05:41:49;46.26;26.43;75.09;;
74210;Laerm;62569;51.976;5.646;2022-10-16T05:44:15;35.08;26.46;62.99;;
74210;Laerm;62569;51.976;5.646;2022-10-16T05:46:40;40.80;26.58;70.98;;
74210;Laerm;62569;51.976;5.646;2022-10-16T05:49:05;44.14;26.26;73.22;;
74210;Laerm;62569;51.976;5.646;2022-10-16T05:51:31;44.74;26.51;74.34;;
74210;Laerm;62569;51.976;5.646;2022-10-16T05:53:56;30.70;26.53;52.37;;
74210;Laerm;62569;51.976;5.646;2022-10-16T05:56:21;30.16;26.66;49.47;;
74210;Laerm;62569;51.976;5.646;2022-10-16T05:58:46;31.71;26.56;57.10;;
74210;Laerm;62569;51.976;5.646;2022-10-16T06:01:12;32.47;26.44;56.95;;
74210;Laerm;62569;51.976;5.646;2022-10-16T06:03:38;32.38;26.42;56.61;;
74210;Laerm;62569;51.976;5.646;2022-10-16T06:08:38;38.30;26.49;68.15;;
74210;Laerm;62569;51.976;5.646;2022-10-16T06:11:04;41.10;26.47;72.66;;
74210;Laerm;62569;51.976;5.646;2022-10-16T06:13:30;46.60;26.49;80.02;;
74210;Laerm;62569;51.976;5.646;2022-10-16T06:15:56;41.75;26.60;72.33;;
74210;Laerm;62569;51.976;5.646;2022-10-16T06:18:22;32.53;26.73;58.13;;
74210;Laerm;62569;51.976;5.646;2022-10-16T06:20:47;37.31;26.75;66.96;;
74210;Laerm;62569;51.976;5.646;2022-10-16T06:23:12;37.68;26.89;66.43;;
74210;Laerm;62569;51.976;5.646;2022-10-16T06:25:37;30.98;26.56;53.16;;
74210;Laerm;62569;51.976;5.646;2022-10-16T06:28:02;29.95;26.47;46.84;;
74210;Laerm;62569;51.976;5.646;2022-10-16T06:30:28;31.59;26.94;55.92;;
74210;Laerm;62569;51.976;5.646;2022-10-16T06:32:53;35.01;26.39;63.46;;
74210;Laerm;62569;51.976;5.646;2022-10-16T06:35:18;32.81;26.55;61.08;;
74210;Laerm;62569;51.976;5.646;2022-10-16T06:37:43;41.07;26.46;68.37;;
74210;Laerm;62569;51.976;5.646;2022-10-16T06:40:08;51.25;26.76;79.92;;
74210;Laerm;62569;51.976;5.646;2022-10-16T06:42:33;43.00;26.47;69.70;;
74210;Laerm;62569;51.976;5.646;2022-10-16T06:44:59;46.25;26.95;73.98;;
74210;Laerm;62569;51.976;5.646;2022-10-16T06:47:24;38.28;26.69;61.45;;
74210;Laerm;62569;51.976;5.646;2022-10-16T06:49:49;44.45;26.64;74.29;;
74210;Laerm;62569;51.976;5.646;2022-10-16T06:52:14;40.01;26.63;66.87;;
74210;Laerm;62569;51.976;5.646;2022-10-16T06:54:39;36.24;26.81;66.45;;
74210;Laerm;62569;51.976;5.646;2022-10-16T06:57:04;36.62;26.87;62.64;;
74210;Laerm;62569;51.976;5.646;2022-10-16T06:59:29;32.31;26.53;56.07;;
74210;Laerm;62569;51.976;5.646;2022-10-16T07:01:55;36.81;26.63;63.17;;
74210;Laerm;62569;51.976;5.646;2022-10-16T07:04:20;36.89;26.80;68.72;;
74210;Laerm;62569;51.976;5.646;2022-10-16T07:06:45;40.59;26.40;69.19;;
74210;Laerm;62569;51.976;5.646;2022-10-16T07:09:10;37.57;26.69;66.66;;
74210;Laerm;62569;51.976;5.646;2022-10-16T07:11:36;46.20;26.50;75.08;;
74210;Laerm;62569;51.976;5.646;2022-10-16T07:14:02;50.76;26.55;80.21;;
74210;Laerm;62569;51.976;5.646;2022-10-16T07:16:28;47.70;26.71;75.46;;
74210;Laerm;62569;51.976;5.646;2022-10-16T07:18:54;51.33;26.73;78.65;;
74210;Laerm;62569;51.976;5.646;2022-10-16T07:21:23;42.37;30.36;69.35;;
74210;Laerm;62569;51.976;5.646;2022-10-16T07:23:54;46.67;27.16;76.84;;
74210;Laerm;62569;51.976;5.646;2022-10-16T07:26:20;40.62;26.97;62.22;;
74210;Laerm;62569;51.976;5.646;2022-10-16T07:28:45;49.51;26.98;79.35;;
74210;Laerm;62569;51.976;5.646;2022-10-16T07:31:11;48.71;31.31;79.28;;
74210;Laerm;62569;51.976;5.646;2022-10-16T07:33:38;44.44;27.52;75.16;;
74210;Laerm;62569;51.976;5.646;2022-10-16T07:36:04;46.93;30.31;77.63;;
74210;Laerm;62569;51.976;5.646;2022-10-16T07:38:29;50.52;26.63;83.76;;
74210;Laerm;62569;51.976;5.646;2022-10-16T07:40:58;45.28;27.92;70.19;;
74210;Laerm;62569;51.976;5.646;2022-10-16T07:43:23;51.78;27.11;85.09;;
74210;Laerm;62569;51.976;5.646;2022-10-16T07:45:49;59.56;26.55;91.26;;
74210;Laerm;62569;51.976;5.646;2022-10-16T07:48:15;42.35;26.85;68.19;;
74210;Laerm;62569;51.976;5.646;2022-10-16T07:50:40;42.20;26.92;73.18;;
74210;Laerm;62569;51.976;5.646;2022-10-16T07:53:06;40.35;27.19;62.48;;
74210;Laerm;62569;51.976;5.646;2022-10-16T07:55:31;44.33;31.40;71.01;;
74210;Laerm;62569;51.976;5.646;2022-10-16T07:57:56;41.35;29.83;60.94;;
74210;Laerm;62569;51.976;5.646;2022-10-16T08:00:21;40.46;27.55;60.39;;
74210;Laerm;62569;51.976;5.646;2022-10-16T08:02:46;49.85;27.16;79.27;;
74210;Laerm;62569;51.976;5.646;2022-10-16T08:05:12;39.41;26.77;68.86;;
74210;Laerm;62569;51.976;5.646;2022-10-16T08:07:37;30.11;26.62;45.15;;
74210;Laerm;62569;51.976;5.646;2022-10-16T08:10:02;29.90;26.89;38.50;;
74210;Laerm;62569;51.976;5.646;2022-10-16T08:12:27;30.65;26.66;44.80;;
74210;Laerm;62569;51.976;5.646;2022-10-16T08:14:52;30.28;26.74;41.74;;
74210;Laerm;62569;51.976;5.646;2022-10-16T08:17:18;30.08;26.93;40.24;;
74210;Laerm;62569;51.976;5.646;2022-10-16T08:19:46;29.80;26.74;39.25;;
74210;Laerm;62569;51.976;5.646;2022-10-16T08:22:12;31.10;26.54;59.01;;
74210;Laerm;62569;51.976;5.646;2022-10-16T08:24:37;30.43;26.74;43.95;;
74210;Laerm;62569;51.976;5.646;2022-10-16T08:27:02;29.64;26.54;38.17;;
74210;Laerm;62569;51.976;5.646;2022-10-16T08:29:28;29.72;26.44;48.40;;
74210;Laerm;62569;51.976;5.646;2022-10-16T08:31:53;29.80;26.47;44.70;;
74210;Laerm;62569;51.976;5.646;2022-10-16T08:34:18;29.90;26.76;43.10;;
74210;Laerm;62569;51.976;5.646;2022-10-16T08:36:43;29.77;26.51;38.94;;
74210;Laerm;62569;51.976;5.646;2022-10-16T08:39:09;30.39;26.63;43.62;;
74210;Laerm;62569;51.976;5.646;2022-10-16T08:49:29;29.99;26.52;45.90;;
74210;Laerm;62569;51.976;5.646;2022-10-16T08:51:55;29.90;26.47;44.55;;
74210;Laerm;62569;51.976;5.646;2022-10-16T08:54:35;30.53;26.64;47.52;;
74210;Laerm;62569;51.976;5.646;2022-10-16T08:57:12;30.16;26.85;45.65;;
74210;Laerm;62569;51.976;5.646;2022-10-16T08:59:38;30.59;27.36;45.07;;
74210;Laerm;62569;51.976;5.646;2022-10-16T09:02:08;30.42;26.60;45.79;;
74210;Laerm;62569;51.976;5.646;2022-10-16T09:07:17;29.79;26.46;45.66;;
74210;Laerm;62569;51.976;5.646;2022-10-16T09:17:33;29.68;26.57;45.91;;
74210;Laerm;62569;51.976;5.646;2022-10-16T09:22:30;29.71;26.50;44.74;;
74210;Laerm;62569;51.976;5.646;2022-10-16T09:24:58;30.09;26.56;51.25;;
74210;Laerm;62569;51.976;5.646;2022-10-16T09:27:25;29.64;26.62;39.04;;
74210;Laerm;62569;51.976;5.646;2022-10-16T09:29:50;29.60;26.60;37.89;;
74210;Laerm;62569;51.976;5.646;2022-10-16T09:32:17;29.84;26.74;42.13;;
74210;Laerm;62569;51.976;5.646;2022-10-16T09:34:46;30.09;26.57;50.03;;
74210;Laerm;62569;51.976;5.646;2022-10-16T09:37:13;29.78;26.69;39.48;;
74210;Laerm;62569;51.976;5.646;2022-10-16T09:39:49;29.75;26.72;38.55;;
74210;Laerm;62569;51.976;5.646;2022-10-16T09:42:18;29.56;26.50;42.10;;
74210;Laerm;62569;51.976;5.646;2022-10-16T09:44:47;29.86;26.42;47.77;;
74210;Laerm;62569;51.976;5.646;2022-10-16T09:47:13;29.68;26.35;44.91;;
74210;Laerm;62569;51.976;5.646;2022-10-16T09:49:39;29.85;26.65;41.51;;
74210;Laerm;62569;51.976;5.646;2022-10-16T09:52:15;29.77;26.60;40.09;;
74210;Laerm;62569;51.976;5.646;2022-10-16T09:54:50;29.43;26.32;42.18;;
74210;Laerm;62569;51.976;5.646;2022-10-16T09:57:16;30.09;27.04;40.67;;
74210;Laerm;62569;51.976;5.646;2022-10-16T09:59:51;31.03;27.03;55.97;;
74210;Laerm;62569;51.976;5.646;2022-10-16T10:02:18;31.96;27.00;46.66;;
74210;Laerm;62569;51.976;5.646;2022-10-16T10:04:47;31.52;28.96;38.98;;
74210;Laerm;62569;51.976;5.646;2022-10-16T10:07:16;31.28;28.70;43.09;;
74210;Laerm;62569;51.976;5.646;2022-10-16T10:09:44;31.49;28.46;38.91;;
74210;Laerm;62569;51.976;5.646;2022-10-16T10:12:26;32.05;28.49;44.58;;
74210;Laerm;62569;51.976;5.646;2022-10-16T10:14:52;31.51;28.36;43.22;;
74210;Laerm;62569;51.976;5.646;2022-10-16T10:24:56;40.55;28.41;66.66;;
74210;Laerm;62569;51.976;5.646;2022-10-16T10:27:23;34.76;28.55;57.47;;
74210;Laerm;62569;51.976;5.646;2022-10-16T10:29:54;52.17;28.28;80.33;;
74210;Laerm;62569;51.976;5.646;2022-10-16T10:32:33;52.59;27.36;78.57;;
74210;Laerm;62569;51.976;5.646;2022-10-16T10:37:34;51.44;26.88;79.85;;
74210;Laerm;62569;51.976;5.646;2022-10-16T10:45:16;43.42;27.22;69.36;;
74210;Laerm;62569;51.976;5.646;2022-10-16T10:50:12;38.52;28.13;62.56;;
74210;Laerm;62569;51.976;5.646;2022-10-16T10:57:50;47.95;27.92;77.54;;
74210;Laerm;62569;51.976;5.646;2022-10-16T11:00:39;51.24;28.14;83.38;;
74210;Laerm;62569;51.976;5.646;2022-10-16T11:08:41;40.14;27.46;68.62;;
74210;Laerm;62569;51.976;5.646;2022-10-16T11:10:58;52.88;27.59;83.52;;
74210;Laerm;62569;51.976;5.646;2022-10-16T11:16:13;38.48;27.09;58.67;;
74210;Laerm;62569;51.976;5.646;2022-10-16T11:18:51;42.85;27.01;68.69;;
74210;Laerm;62569;51.976;5.646;2022-10-16T11:21:20;45.10;29.61;71.43;;
74210;Laerm;62569;51.976;5.646;2022-10-16T11:23:48;39.66;26.88;51.06;;
74210;Laerm;62569;51.976;5.646;2022-10-16T11:26:17;38.21;27.11;53.52;;
74210;Laerm;62569;51.976;5.646;2022-10-16T11:28:45;36.41;27.50;49.33;;
74210;Laerm;62569;51.976;5.646;2022-10-16T11:33:39;40.20;26.87;51.48;;
74210;Laerm;62569;51.976;5.646;2022-10-16T11:36:08;42.79;27.12;66.11;;
74210;Laerm;62569;51.976;5.646;2022-10-16T11:38:42;36.05;27.26;59.74;;
74210;Laerm;62569;51.976;5.646;2022-10-16T11:41:10;41.36;27.84;70.01;;
74210;Laerm;62569;51.976;5.646;2022-10-16T11:43:38;53.11;26.95;84.22;;
74210;Laerm;62569;51.976;5.646;2022-10-16T11:46:10;46.26;29.87;72.68;;
74210;Laerm;62569;51.976;5.646;2022-10-16T11:51:23;45.50;31.69;57.25;;
74210;Laerm;62569;51.976;5.646;2022-10-16T11:53:55;43.23;28.37;63.47;;
74210;Laerm;62569;51.976;5.646;2022-10-16T11:56:24;44.81;27.16;59.91;;
74210;Laerm;62569;51.976;5.646;2022-10-16T11:58:54;44.25;27.33;56.77;;
74210;Laerm;62569;51.976;5.646;2022-10-16T12:06:49;46.69;29.63;76.61;;
74210;Laerm;62569;51.976;5.646;2022-10-16T12:09:37;43.85;27.85;62.51;;
74210;Laerm;62569;51.976;5.646;2022-10-16T12:12:02;43.42;27.62;57.02;;
74210;Laerm;62569;51.976;5.646;2022-10-16T12:16:57;42.81;33.53;60.35;;
74210;Laerm;62569;51.976;5.646;2022-10-16T12:19:25;46.41;27.30;73.06;;
74210;Laerm;62569;51.976;5.646;2022-10-16T12:21:51;43.88;27.57;57.07;;
74210;Laerm;62569;51.976;5.646;2022-10-16T12:26:57;45.82;32.31;70.34;;
74210;Laerm;62569;51.976;5.646;2022-10-16T12:29:29;48.72;27.60;72.30;;
74210;Laerm;62569;51.976;5.646;2022-10-16T12:31:56;48.95;27.63;77.33;;
74210;Laerm;62569;51.976;5.646;2022-10-16T12:34:23;48.96;27.26;70.42;;
74210;Laerm;62569;51.976;5.646;2022-10-16T12:36:50;49.40;27.42;66.70;;
74210;Laerm;62569;51.976;5.646;2022-10-16T12:39:22;47.11;27.36;69.58;;
74210;Laerm;62569;51.976;5.646;2022-10-16T12:41:48;44.90;26.84;64.87;;
74210;Laerm;62569;51.976;5.646;2022-10-16T12:44:24;36.79;26.82;59.73;;
74210;Laerm;62569;51.976;5.646;2022-10-16T12:46:51;35.95;27.31;41.51;;
74210;Laerm;62569;51.976;5.646;2022-10-16T12:49:29;36.33;27.13;49.25;;
74210;Laerm;62569;51.976;5.646;2022-10-16T12:51:55;36.34;26.85;50.39;;
74210;Laerm;62569;51.976;5.646;2022-10-16T12:54:30;36.18;26.78;45.49;;
74210;Laerm;62569;51.976;5.646;2022-10-16T12:59:40;37.11;26.91;49.15;;
74210;Laerm;62569;51.976;5.646;2022-10-16T13:07:41;40.33;27.47;53.29;;
74210;Laerm;62569;51.976;5.646;2022-10-16T13:12:54;42.45;27.20;63.98;;
74210;Laerm;62569;51.976;5.646;2022-10-16T13:15:25;45.04;27.70;68.02;;
74210;Laerm;62569;51.976;5.646;2022-10-16T13:18:10;40.52;28.82;59.34;;
74210;Laerm;62569;51.976;5.646;2022-10-16T13:23:15;41.78;26.72;65.75;;
74210;Laerm;62569;51.976;5.646;2022-10-16T13:28:28;43.87;26.92;67.58;;
74210;Laerm;62569;51.976;5.646;2022-10-16T13:30:56;47.25;27.35;74.25;;
74210;Laerm;62569;51.976;5.646;2022-10-16T13:35:49;49.13;32.18;76.68;;
74210;Laerm;62569;51.976;5.646;2022-10-16T13:38:16;45.81;31.88;61.16;;
74210;Laerm;62569;51.976;5.646;2022-10-16T13:40:53;49.62;34.72;75.86;;
74210;Laerm;62569;51.976;5.646;2022-10-16T13:43:18;49.49;26.73;77.33;;
74210;Laerm;62569;51.976;5.646;2022-10-16T13:45:57;45.86;31.38;68.41;;
74210;Laerm;62569;51.976;5.646;2022-10-16T13:48:22;43.50;30.56;66.40;;
74210;Laerm;62569;51.976;5.646;2022-10-16T13:51:33;39.28;26.83;48.08;;
74210;Laerm;62569;51.976;5.646;2022-10-16T13:53:34;40.53;29.04;62.33;;
74210;Laerm;62569;51.976;5.646;2022-10-16T13:55:59;41.39;27.70;68.06;;
74210;Laerm;62569;51.976;5.646;2022-10-16T13:58:25;41.87;27.45;67.69;;
74210;Laerm;62569;51.976;5.646;2022-10-16T14:00:54;44.61;27.22;71.96;;
74210;Laerm;62569;51.976;5.646;2022-10-16T14:03:20;39.43;27.30;46.36;;
74210;Laerm;62569;51.976;5.646;2022-10-16T14:05:49;39.85;26.92;53.97;;
74210;Laerm;62569;51.976;5.646;2022-10-16T14:08:15;41.11;29.38;61.25;;
74210;Laerm;62569;51.976;5.646;2022-10-16T14:10:40;45.39;29.03;74.94;;
74210;Laerm;62569;51.976;5.646;2022-10-16T14:13:05;49.14;27.65;77.86;;
74210;Laerm;62569;51.976;5.646;2022-10-16T14:15:32;43.99;27.34;67.27;;
74210;Laerm;62569;51.976;5.646;2022-10-16T14:17:57;38.56;27.31;54.68;;
74210;Laerm;62569;51.976;5.646;2022-10-16T14:20:26;45.24;28.39;71.57;;
74210;Laerm;62569;51.976;5.646;2022-10-16T14:23:02;41.08;27.16;70.73;;
74210;Laerm;62569;51.976;5.646;2022-10-16T14:25:29;44.66;29.30;69.88;;
74210;Laerm;62569;51.976;5.646;2022-10-16T14:30:24;41.45;27.77;68.43;;
74210;Laerm;62569;51.976;5.646;2022-10-16T14:32:54;47.70;27.31;74.43;;
74210;Laerm;62569;51.976;5.646;2022-10-16T14:35:24;43.11;27.58;69.39;;
74210;Laerm;62569;51.976;5.646;2022-10-16T14:37:53;44.02;29.28;63.35;;
74210;Laerm;62569;51.976;5.646;2022-10-16T14:40:19;44.62;27.25;66.87;;
74210;Laerm;62569;51.976;5.646;2022-10-16T14:42:45;43.59;26.94;68.68;;
74210;Laerm;62569;51.976;5.646;2022-10-16T14:45:10;42.02;31.58;49.66;;
74210;Laerm;62569;51.976;5.646;2022-10-16T14:47:36;41.36;27.12;50.40;;
74210;Laerm;62569;51.976;5.646;2022-10-16T14:50:10;44.65;32.59;70.01;;
74210;Laerm;62569;51.976;5.646;2022-10-16T14:52:35;43.43;26.94;75.33;;
74210;Laerm;62569;51.976;5.646;2022-10-16T14:55:00;45.22;27.70;70.73;;
74210;Laerm;62569;51.976;5.646;2022-10-16T14:57:27;41.26;27.33;64.26;;
74210;Laerm;62569;51.976;5.646;2022-10-16T14:59:52;44.88;31.96;68.40;;
74210;Laerm;62569;51.976;5.646;2022-10-16T15:02:20;40.80;27.19;56.37;;
74210;Laerm;62569;51.976;5.646;2022-10-16T15:04:47;39.15;27.50;58.30;;
74210;Laerm;62569;51.976;5.646;2022-10-16T15:07:13;41.67;27.30;67.94;;
74210;Laerm;62569;51.976;5.646;2022-10-16T15:09:38;41.69;28.13;66.65;;
74210;Laerm;62569;51.976;5.646;2022-10-16T15:12:03;42.41;30.17;69.98;;
74210;Laerm;62569;51.976;5.646;2022-10-16T15:14:28;48.81;27.82;76.38;;
74210;Laerm;62569;51.976;5.646;2022-10-16T15:16:54;43.80;28.11;65.59;;
74210;Laerm;62569;51.976;5.646;2022-10-16T15:19:19;46.49;33.84;65.20;;
74210;Laerm;62569;51.976;5.646;2022-10-16T15:21:44;42.16;31.07;61.26;;
74210;Laerm;62569;51.976;5.646;2022-10-16T15:24:12;40.45;31.28;64.16;;
74210;Laerm;62569;51.976;5.646;2022-10-16T15:26:37;42.76;28.04;63.75;;